RJTTRJOB

Guest
Details From RJTT - Rjtt-tokyo Haneda
To RJOB - Okayama
Flight Number -
Tags Generated
Created
Modified
Stats Distance 296 nm / 548 km
Max Altitude 0 ft / 0 m
Waypoints 3
Social Downloads 1
Likes 0
Share VATSIM

Download

Looking for another format? Having issues loading an existing format? Contact us
Advertisement - Login to hide

Notes

Generated

Route

RJTT OYE RJOB

ID Type Via Altitude Latitude Longitude Leg Dist Tot Dist Heading (true) Name
O RJTT APT - 0 ft / 0 m 35.56747˚ 139.77712˚ - 0 nm - -
OYE VOR - 0 ft / 0 m 34.75038˚ 133.83506˚ 295 nm 295 nm 262° / 259° KIBI VOR-DME
O RJOB APT - 0 ft / 0 m 34.75002˚ 133.84136˚ 0 nm 296 nm 94° / 94° -

Altitude Profile

Advertisement - Login to hide

Weather


0- 5 10 15 20 25 30 35+ Temperature / ° C

Clouds and Precipitation
Forecast for 2017-12-13 18:00 UTC. Updated an hour ago

Ground ~20,000 ft ~40,000 ft Winds

RJTT

Details ICAO RJTT (HND)
Name Tokyo Haneda Intl
Region Japan
Timezone Asia/Tokyo (UTC+9.0)
Stats Elevation 20 ft / 6 m (AMSL)
Location 35.548254° 139.788554°
Runways 4
Magnetic Variation 7.425° W

METAR

RJTT 131830Z 34017KT 9999 FEW030 06/M08 Q1017 NOSIG

Decode

TAF

TAF RJTT 131705Z 1318/1500 31012KT 9999 FEW030

Decode

Departure Runways

ID Width Length Bearing (true) Bearing (mag) Surface Threshold Offset Overrun Length
04 200 ft / 61 m 8,211 ft / 2,503 m 34.90° 42.32° Asphalt 0 ft / 0 m 200 ft / 61 m
05 197 ft / 60 m 8,206 ft / 2,501 m 42.44° 49.86° Asphalt 0 ft / 0 m 197 ft / 60 m
16L 200 ft / 61 m 9,856 ft / 3,004 m 150.00° 157.42° Asphalt 0 ft / 0 m 200 ft / 61 m
16R 200 ft / 61 m 9,986 ft / 3,044 m 150.01° 157.43° Asphalt 131 ft / 40 m 0 ft / 0 m
22 200 ft / 61 m 8,211 ft / 2,503 m 214.90° 222.32° Asphalt 0 ft / 0 m 200 ft / 61 m
23 197 ft / 60 m 8,206 ft / 2,501 m 222.45° 229.87° Asphalt 0 ft / 0 m 197 ft / 60 m
34L 200 ft / 61 m 9,986 ft / 3,044 m 330.02° 337.44° Asphalt 0 ft / 0 m 197 ft / 60 m
34R 200 ft / 61 m 9,856 ft / 3,004 m 330.01° 337.43° Asphalt 0 ft / 0 m 200 ft / 61 m

RJOB

Details ICAO RJOB (OKJ)
Name OKAYAMA
Region Japan
Timezone Asia/Tokyo (UTC+9.0)
Stats Elevation 806 ft / 246 m (AMSL)
Location 34.756937° 133.855435°
Runways 1
Magnetic Variation 7.763° W

METAR

Not found

TAF

TAF RJOB 131705Z 1318/1500 35004KT 9999 FEW015 BKN040

Decode

Destination Runways

ID Width Length Bearing (true) Bearing (mag) Surface Threshold Offset Overrun Length
07 150 ft / 46 m 9,835 ft / 2,998 m 59.10° 66.86° Asphalt 0 ft / 0 m 200 ft / 61 m
25 150 ft / 46 m 9,835 ft / 2,998 m 239.12° 246.88° Asphalt 0 ft / 0 m 200 ft / 61 m

Approach Navaids

Runway Type Ident Frequency Range Bearing (true) Bearing (mag) Slope Elevation
07 Localiser IOY 110.30 MHz 18 nm / 33 km 59.12° 66.89° - 806 ft / 246 m (AMSL)
07 Glidescope IOY 110.30 MHz 10 nm / 19 km 59.11° 66.87° 3.00° 806 ft / 246 m (AMSL)

Popular Alternatives